»·PEaware :: N563YP JLI-KBLH

N563YP :: JLI-KBLH

FLIGHT INFORMATION

Flight Status: Arrived
Operator: Privately registered:
United States
More flights under this callsign
Pilot: Anonymous 15639 (15639)
Aircraft: CESSNA 172 SKYHAWK
(C172)
More flights by this aircraft type
Origin: JLI
Destination: KBLH Blythe
United States
More flights between these airports :: More routes between these airports
Route: +
File this flight plan on PilotEdge
Remarks:
Altitude:
(Current/Filed)
0ft
Speed:
(Current/Filed)
0kts
Departed: 29-Jun-17 01:16 PM
Arrived: 29-Jun-17 02:20 PM
Distance/Time
Traveled:
Not Available
Distance/Time
To Go:
Arrived

Flight Plot

Page will automatically refresh every two minutes.

Flight plan parsing failed; only flown route is shown


Map Options




Map Legend


Flown Route
Filed Route
Departure Airport
Arrival Airport
Navaid (VOR, NDB)
Fix

Horizontal Profiles

Position Reports

Time Latitude Longitude Heading Altitude Ground
Speed
29-Jun-17 13:18 32.933376 -116.746403 23 4808ft 105kts
29-Jun-17 13:19 32.961280 -116.722856 31 5381ft 104kts
29-Jun-17 13:20 32.985153 -116.703380 29 5871ft 104kts
29-Jun-17 13:21 33.005207 -116.687721 28 6280ft 103kts
29-Jun-17 13:22 33.029529 -116.669191 28 6772ft 104kts
29-Jun-17 13:23 33.053922 -116.650887 27 7265ft 104kts
29-Jun-17 13:24 33.078633 -116.632499 28 7762ft 105kts
29-Jun-17 13:25 33.103532 -116.614374 27 8250ft 106kts
29-Jun-17 13:26 33.125037 -116.599051 28 8644ft 107kts
29-Jun-17 13:27 33.148149 -116.577336 52 9094ft 108kts
29-Jun-17 13:28 33.166354 -116.548489 55 9463ft 114kts
29-Jun-17 13:29 33.183201 -116.513489 65 9442ft 124kts
29-Jun-17 13:30 33.202220 -116.479166 55 9422ft 124kts
29-Jun-17 13:31 33.220363 -116.447829 55 9393ft 125kts
29-Jun-17 13:32 33.239952 -116.413861 55 9354ft 123kts
29-Jun-17 13:33 33.259250 -116.380316 55 9318ft 121kts
29-Jun-17 13:34 33.277411 -116.348900 57 9466ft 108kts
29-Jun-17 13:35 33.294757 -116.318090 57 9471ft 114kts
29-Jun-17 13:36 33.312861 -116.286208 57 9469ft 116kts
29-Jun-17 13:37 33.331177 -116.254128 57 9469ft 117kts
29-Jun-17 13:38 33.349578 -116.221951 57 9469ft 117kts
29-Jun-17 13:39 33.367999 -116.189718 57 9469ft 117kts
29-Jun-17 13:40 33.386377 -116.157525 57 9469ft 117kts
29-Jun-17 13:41 33.404815 -116.125204 57 9469ft 117kts
29-Jun-17 13:42 33.423205 -116.092938 57 9469ft 117kts
29-Jun-17 13:43 33.441601 -116.060646 57 9469ft 117kts
29-Jun-17 13:44 33.459998 -116.028332 57 9469ft 117kts
29-Jun-17 13:45 33.478327 -115.996114 57 9469ft 117kts
29-Jun-17 13:46 33.496727 -115.963746 57 9469ft 117kts
29-Jun-17 13:47 33.515054 -115.931476 57 9469ft 117kts
29-Jun-17 13:48 33.533462 -115.899039 57 9469ft 117kts
29-Jun-17 13:49 33.551867 -115.866808 57 9469ft 117kts
29-Jun-17 13:50 33.570358 -115.834510 57 9469ft 117kts
29-Jun-17 13:51 33.588368 -115.801781 59 9470ft 117kts
29-Jun-17 13:52 33.606111 -115.768946 58 9471ft 117kts
29-Jun-17 13:53 33.616302 -115.733189 88 9484ft 115kts
29-Jun-17 13:54 33.618045 -115.694784 85 9493ft 115kts
29-Jun-17 13:55 33.619219 -115.656508 90 9503ft 115kts
29-Jun-17 13:56 33.619124 -115.617969 91 9503ft 115kts
29-Jun-17 13:57 33.618729 -115.579451 91 9503ft 115kts
29-Jun-17 13:58 33.618179 -115.540947 91 9503ft 115kts
29-Jun-17 13:59 33.617544 -115.502364 91 9503ft 115kts
29-Jun-17 14:00 33.616870 -115.464084 92 9521ft 114kts
29-Jun-17 14:01 33.614746 -115.425825 94 9522ft 115kts
29-Jun-17 14:02 33.612968 -115.387557 93 9528ft 115kts
29-Jun-17 14:03 33.611782 -115.349136 93 9534ft 115kts
29-Jun-17 14:04 33.610529 -115.310651 94 9540ft 115kts
29-Jun-17 14:05 33.609441 -115.272028 94 9546ft 116kts
29-Jun-17 14:06 33.608429 -115.233289 94 9552ft 116kts
29-Jun-17 14:07 33.607445 -115.194306 94 9558ft 117kts
29-Jun-17 14:08 33.606475 -115.155185 94 9558ft 117kts
29-Jun-17 14:09 33.605449 -115.116143 94 9023ft 121kts
29-Jun-17 14:10 33.604379 -115.074942 94 8234ft 124kts
29-Jun-17 14:11 33.603319 -115.033599 94 7438ft 124kts
29-Jun-17 14:12 33.602294 -114.992475 95 6649ft 123kts
29-Jun-17 14:13 33.600350 -114.951984 97 6021ft 121kts
29-Jun-17 14:14 33.599045 -114.912140 97 5358ft 119kts
29-Jun-17 14:15 33.595926 -114.872841 99 4700ft 117kts
29-Jun-17 14:16 33.592399 -114.834549 99 3917ft 113kts
29-Jun-17 14:17 33.587738 -114.797969 95 3029ft 111kts
29-Jun-17 14:18 33.588802 -114.762166 77 2269ft 111kts
29-Jun-17 14:19 33.609318 -114.737895 4 1615ft 104kts
29-Jun-17 14:20 33.636384 -114.738515 359 1394ft 94kts
29-Jun-17 14:21 33.649043 -114.722991 121 1017ft 69kts
29-Jun-17 14:22 33.632540 -114.716834 174 552ft 66kts
29-Jun-17 14:23 33.619465 -114.716787 174 396ft 13kts
29-Jun-17 14:24 33.617288 -114.715138 170 396ft 17kts
29-Jun-17 14:25 33.614439 -114.714420 179 396ft 6kts
29-Jun-17 14:26 33.614087 -114.714421 180 396ft 0kts
29-Jun-17 14:27 33.614087 -114.714421 180 396ft 0kts
29-Jun-17 14:28 33.614087 -114.714421 180 396ft 0kts
29-Jun-17 14:29 33.614087 -114.714421 180 396ft 0kts

Navigation Log

Ident Type
Flight plan parsing failed, navigation log unavailable